Terminal Aerodrome Forecast
Issued by NWS

Home | Current Version | Previous Version | Text Only | Print | Product List | Glossary On
Versions: 1 2 3 4 5 6 7 8 9 10 11 12 13 14 15 16 17 18 19 20 21 22 23 24 25 26
000
FTAK31 PAFA 301404 AAA
TAFAOM
TAF AMD
PAOM 301404Z 3014/3112 07003KT P6SM -SN BKN004 BKN022
     FM301530 VRB04KT P6SM SCT008 BKN140
     FM301800 12008KT P6SM SCT100 SCT200
     FM310100 08006KT P6SM FEW008=

USA.gov is the U.S. government's official web portal to all federal, state and local government web resources and services.